• Join FlightAware (Why Join?)
  • Login
  • US Flag 
Rudolph Flight #1: Arrived! 
12:55AM EST


 

Airport Tracker/Info


-or-


 

Live Flight TrackerFlight Track Log ✈ AXM5241 ✈ 18-Oct-2013 ✈ WBGB / BTU - WMKK / KUL

Flight Track Log - Related Links

Times and Time Zones

All times are in EDT time to prevent confusion due to time zone crossing. See the AXM5241 flight status page for this flight to view local times or setup timezone preferences in your user account.

Time Position Orientation Groundspeed Altitude Reporting Facility
EDT Latitude Longitude Course Direction KTS MPH feet Rate Location/Type
04:29AM 2.9620 111.5140 261° West 463 533 28,800  Level FlightAware
04:30AM 2.9500 111.4380 261° West 464 534 28,800  Level FlightAware
04:31AM 2.9400 111.3730 261° West 464 534 28,800  Level FlightAware
04:31AM 2.9300 111.3080 261° West 464 534 28,800  Level FlightAware
04:32AM 2.9190 111.2420 261° West 464 534 28,800 2,700 Level FlightAware
04:33AM 2.9030 111.1090 263° West 476 548 32,200 3,000 Climbing FlightAware
04:33AM 2.8920 111.0430 261° West 475 547 32,400 120 Climbing FlightAware
04:34AM 2.8820 110.9750 262° West 475 547 32,400 1,800 Level FlightAware
04:34AM 2.8690 110.8810 262° West 466 536 34,500 2,520 Climbing FlightAware
04:35AM 2.8570 110.8020 261° West 462 532 35,300 1,620 Climbing FlightAware
04:35AM 2.8480 110.7370 262° West 447 514 36,400 1,800 Climbing FlightAware
04:36AM 2.8370 110.6650 261° West 437 503 37,400 1,200 Climbing FlightAware
04:37AM 2.8260 110.5930 261° West 435 501 37,900 480 Climbing FlightAware
04:37AM 2.8150 110.5210 261° West 438 504 38,000 60 Climbing FlightAware
04:38AM 2.8050 110.4470 262° West 437 503 38,000  Level FlightAware
04:38AM 2.7950 110.3840 261° West 437 503 38,000  Level FlightAware
04:39AM 2.7840 110.3110 261° West 437 503 38,000  Level FlightAware
04:40AM 2.7760 110.2510 262° West 437 503 38,000  Level FlightAware
04:40AM 2.7650 110.1780 261° West 438 504 38,000  Level FlightAware
04:41AM 2.7530 110.1030 261° West 438 504 38,000  Level FlightAware
04:41AM 2.7420 110.0270 262° West 439 505 38,000  Level FlightAware
04:42AM 2.7320 109.9570 262° West 439 505 38,000  Level FlightAware
04:42AM 2.7220 109.8940 261° West 439 505 38,000  Level FlightAware
04:43AM 2.7120 109.8230 262° West 440 506 38,000  Level FlightAware
04:44AM 2.7010 109.7510 261° West 441 507 38,000  Level FlightAware
04:44AM 2.6910 109.6830 262° West 442 509 38,000  Level FlightAware
04:45AM 2.6800 109.6090 262° West 442 509 38,000  Level FlightAware
04:45AM 2.6690 109.5330 262° West 443 510 38,000  Level FlightAware
04:46AM 2.6580 109.4630 261° West 443 510 38,000  Level FlightAware
04:47AM 2.6480 109.3940 262° West 444 511 38,000  Level FlightAware
04:47AM 2.6370 109.3220 261° West 446 513 38,000  Level FlightAware
04:48AM 2.6270 109.2510 262° West 445 512 38,000  Level FlightAware
04:48AM 2.6150 109.1760 261° West 444 511 38,000  Level FlightAware
04:49AM 2.6050 109.1090 262° West 444 511 38,000  Level FlightAware
04:50AM 2.5950 109.0370 262° West 442 509 38,000  Level FlightAware
04:50AM 2.5830 108.9650 261° West 441 507 38,000  Level FlightAware
04:51AM 2.5670 108.9000 256° West 438 504 38,000  Level FlightAware
04:51AM 2.5430 108.8370 249° West 436 502 38,000  Level FlightAware
04:52AM 2.5150 108.7640 249° West 436 502 38,000  Level FlightAware
04:52AM 2.4920 108.7040 249° West 439 505 38,000  Level FlightAware
04:53AM 2.4660 108.6350 249° West 442 509 38,000  Level FlightAware
04:54AM 2.4380 108.5630 249° West 443 510 38,000  Level FlightAware
04:54AM 2.4110 108.4930 249° West 444 511 38,000 60 Level FlightAware
04:55AM 2.3880 108.4340 249° West 443 510 38,100  Climbing FlightAware
04:55AM 2.3610 108.3630 249° West 442 509 38,000 -120 Descending FlightAware
04:56AM 2.3360 108.2980 249° West 443 510 38,000  Level FlightAware
04:57AM 2.3080 108.2260 249° West 441 507 38,000  Level FlightAware
04:57AM 2.2860 108.1700 249° West 439 505 38,000  Level FlightAware
04:58AM 2.2620 108.1080 249° West 439 505 38,000  Level FlightAware
04:58AM 2.2400 108.0500 249° West 439 505 38,000  Level FlightAware
04:59AM 2.2180 107.9920 249° West 439 505 38,000  Level FlightAware
05:00AM 2.1960 107.9340 249° West 439 505 38,000  Level FlightAware
05:00AM 2.1730 107.8760 248° West 439 505 38,000  Level FlightAware
05:01AM 2.1510 107.8160 250° West 439 505 38,000  Level FlightAware
05:01AM 2.1280 107.7570 249° West 439 505 38,000  Level FlightAware
05:02AM 2.1060 107.7000 249° West 439 505 38,000  Level FlightAware
05:03AM 2.0840 107.6420 249° West 439 505 38,000  Level FlightAware
05:03AM 2.0610 107.5840 248° West 439 505 38,000  Level FlightAware
05:04AM 2.0390 107.5240 250° West 439 505 38,000  Level FlightAware
05:04AM 2.0160 107.4650 249° West 439 505 38,000  Level FlightAware
05:05AM 1.9930 107.4050 249° West 439 505 38,000  Level FlightAware
05:06AM 1.9700 107.3470 248° West 439 505 38,000  Level FlightAware
05:06AM 1.9480 107.2890 249° West 439 505 38,000  Level FlightAware
05:07AM 1.9260 107.2310 249° West 439 505 38,000  Level FlightAware
05:09AM 1.9621 106.9911 279° West  Level Estimated
05:10AM 1.9830 106.8513 279° West  Level Estimated
05:11AM 2.0040 106.7115 279° West  Level Estimated
05:12AM 2.0250 106.5717 279° West  Level Estimated
05:12AM 2.5800 106.3350 279° West 448 516 38,000  Level FlightAware
05:13AM 2.0460 106.4319 279° West  Level Estimated
05:13AM 2.5980 106.2680 285° West 449 517 38,000  Level FlightAware
05:14AM 2.6140 106.2070 285° West 449 517 38,000  Level FlightAware
05:14AM 2.6310 106.1450 285° West 449 517 38,000  Level FlightAware
05:15AM 2.6630 106.0310 286° West 452 520 38,000  Level FlightAware
05:16AM 2.6840 105.9560 286° West 454 522 38,000  Level FlightAware
05:17AM 2.7130 105.8510 285° West 454 522 38,000  Level FlightAware
05:17AM 2.7370 105.7640 285° West 453 521 38,000  Level FlightAware
05:18AM 2.7550 105.6990 285° West 454 522 38,000  Level FlightAware
05:18AM 2.7760 105.6240 286° West 453 521 38,000  Level FlightAware
05:19AM 2.7950 105.5550 285° West 453 521 38,000  Level FlightAware
05:19AM 2.8130 105.4910 286° West 454 522 38,000  Level FlightAware
05:20AM 2.8330 105.4160 285° West 455 524 38,000  Level FlightAware
05:21AM 2.8540 105.3380 285° West 456 525 38,000  Level FlightAware
05:21AM 2.8710 105.2760 285° West 456 525 38,000  Level FlightAware
05:22AM 2.9010 105.1700 286° West 455 524 38,000  Level FlightAware
05:23AM 2.9170 105.1070 284° West 455 524 38,000  Level FlightAware
05:23AM 2.9340 105.0450 285° West 455 524 38,000  Level FlightAware
05:24AM 2.9510 104.9830 285° West 455 524 38,000  Level FlightAware
05:25AM 2.9670 104.9210 284° West 455 524 38,000  Level FlightAware
05:25AM 2.9840 104.8580 285° West 455 524 38,000  Level FlightAware
05:26AM 3.0260 104.7160 287° West 442 509 38,000  Level FlightAware
05:27AM 3.0460 104.6440 286° West 443 510 38,000  Level FlightAware
05:27AM 3.0650 104.5760 286° West 446 513 38,000  Level FlightAware
05:28AM 3.0830 104.5110 286° West 448 516 38,000  Level FlightAware
05:28AM 3.1030 104.4370 285° West 450 518 38,000  Level FlightAware
05:29AM 3.1240 104.3580 285° West 450 518 38,000 60 Level FlightAware
05:30AM 3.1410 104.2980 286° West 450 518 38,100  Climbing FlightAware
05:30AM 3.1620 104.2200 285° West 448 516 38,000 -120 Descending FlightAware
05:31AM 3.1730 104.1470 279° West 446 513 38,000  Level FlightAware
05:32AM 3.1740 104.0490 271° West 445 512 38,000  Level FlightAware
05:32AM 3.1720 103.9890 268° West 446 513 38,000  Level FlightAware
05:33AM 3.1690 103.9110 268° West 446 513 38,000  Level FlightAware
05:33AM 3.1660 103.8240 268° West 447 514 38,000  Level FlightAware
05:34AM 3.1630 103.7500 268° West 440 506 38,000  Level FlightAware
05:35AM 3.1610 103.6930 268° West 413 475 38,000  Level FlightAware
05:35AM 3.1590 103.6320 268° West 394 453 38,000 -1,020 Level FlightAware
05:36AM 3.1560 103.5670 267° West 392 451 36,900 -1,560 Descending FlightAware
05:36AM 3.1490 103.4800 265° West 395 455 36,000 -660 Descending FlightAware
05:37AM 3.1390 103.4050 262° West 394 453 36,000  Level FlightAware
05:38AM 3.1290 103.3320 262° West 375 432 36,000  Level FlightAware
05:38AM 3.1210 103.2740 262° West 380 437 36,000 -300 Level FlightAware
05:39AM 3.1140 103.2210 262° West 382 440 35,700 -1,320 Descending FlightAware
05:40AM 3.1050 103.1510 263° West 382 440 34,400 -2,040 Descending FlightAware
05:40AM 3.0950 103.0770 262° West 377 434 33,100 -2,220 Descending FlightAware
05:41AM 3.0870 103.0140 263° West 384 442 31,600 -2,520 Descending FlightAware
05:41AM 3.0790 102.9590 262° West 393 452 30,300 -1,980 Descending FlightAware
05:42AM 3.0700 102.8910 262° West 387 445 29,400 -1,680 Descending FlightAware
05:43AM 3.0620 102.8350 262° West 382 440 28,400 -1,920 Descending FlightAware
05:43AM 3.0520 102.7590 262° West 379 436 27,100 -1,500 Descending FlightAware
05:44AM 3.0450 102.7010 263° West 364 419 26,500 -1,380 Descending FlightAware
05:45AM 3.0340 102.6230 262° West 357 411 25,200 -1,020 Descending FlightAware
05:45AM 3.0240 102.5480 262° West 347 399 25,000 -180 Descending FlightAware
05:46AM 3.0170 102.4980 262° West 346 398 25,000  Level FlightAware
05:46AM 3.0150 102.4680 266° West 340 391 25,000  Level FlightAware
05:47AM 3.0480 102.4190 304° West 330 380 25,000  Level FlightAware
05:47AM 3.0690 102.4120 342° North 324 373 25,000  Level FlightAware
05:47AM 3.0790 102.4110 354° North 320 368 25,000  Level FlightAware
05:47AM 3.1030 102.4170 14° North 383 441 25,000  Level FlightAware
05:48AM 3.1280 102.4370 39° Northeast 318 366 25,000  Level FlightAware
05:48AM 3.1390 102.4640 68° East 319 367 25,000  Level FlightAware
05:49AM 3.1450 102.5090 82° East 319 367 25,000 -300 Level FlightAware
05:49AM 3.1500 102.5430 82° East 318 366 24,700 -720 Descending FlightAware
05:50AM 3.1580 102.6030 82° East 314 361 24,200 -960 Descending FlightAware
05:50AM 3.1510 102.6480 99° East 318 366 23,700 -780 Descending FlightAware
05:51AM 3.1360 102.6650 131° Southeast 322 371 23,600 -480 Descending FlightAware
05:51AM 3.1230 102.6730 148° Southeast 325 374 23,500 -600 Descending FlightAware
05:51AM 3.1070 102.6780 163° South 329 379 23,400 -900 Descending FlightAware
05:51AM 3.0920 102.6790 176° South 333 383 23,200 -840 Descending FlightAware
05:51AM 3.0530 102.6600 206° Southwest 343 395 23,000 -420 Descending FlightAware
05:52AM 3.0420 102.6450 234° Southwest 342 394 23,000  Level FlightAware
05:52AM 3.0390 102.6380 247° West 341 392 23,000  Level FlightAware
05:52AM 3.0350 102.6220 256° West 339 390 23,000  Level FlightAware
05:52AM 3.0300 102.5820 263° West 337 388 23,000  Level FlightAware
05:53AM 3.0220 102.5270 262° West 334 384 23,000  Level FlightAware
05:54AM 3.0200 102.4500 269° West 331 381 23,000 -240 Level FlightAware
05:54AM 3.0560 102.4180 318° Northwest 317 365 22,700 -660 Descending FlightAware
05:55AM 3.1060 102.4260 North 368 423 22,300 -480 Descending FlightAware
05:55AM 3.1230 102.4430 45° Northeast 303 349 22,200 -300 Descending FlightAware
05:56AM 3.1300 102.4630 71° East 300 345 22,100 -360 Descending FlightAware
05:56AM 3.1350 102.4920 80° East 298 343 22,000 -480 Descending FlightAware
05:56AM 3.1400 102.5340 83° East 296 341 21,700 -420 Descending FlightAware
05:57AM 3.1440 102.5940 86° East 298 343 21,500 -540 Descending FlightAware
05:57AM 3.1200 102.6070 152° Southeast 310 357 21,200 -960 Descending FlightAware
05:58AM 3.1010 102.6170 152° Southeast 317 365 21,100 -480 Descending FlightAware
05:58AM 3.0860 102.6210 165° South 319 367 21,000 -420 Descending FlightAware
05:58AM 3.0550 102.6160 189° South 328 377 20,900 -420 Descending FlightAware
05:58AM 3.0410 102.6080 210° Southwest 333 383 20,800 -900 Descending FlightAware
05:59AM 3.0300 102.5970 225° Southwest 334 384 20,600 -1,200 Descending FlightAware
05:59AM 3.0190 102.5760 242° Southwest 332 382 20,300 -1,440 Descending FlightAware
05:59AM 3.0170 102.5620 262° West 328 377 20,000 -1,500 Descending FlightAware
05:59AM 3.0160 102.5460 266° West 329 379 19,800 -1,140 Descending FlightAware
06:00AM 3.0030 102.4700 260° West 329 379 19,000 -1,500 Descending FlightAware
06:00AM 2.9620 102.4270 226° Southwest 350 403 17,800 -2,100 Descending FlightAware
06:01AM 2.9220 102.3860 226° Southwest 354 407 16,600 -1,800 Descending FlightAware
06:02AM 2.8730 102.3350 226° Southwest 348 400 15,400 -1,500 Descending FlightAware
06:02AM 2.8260 102.2860 226° Southwest 341 392 14,500 -1,500 Descending FlightAware
06:03AM 2.7890 102.2480 226° Southwest 339 390 13,600 -1,560 Descending FlightAware
06:04AM 2.7460 102.2030 226° Southwest 324 373 12,400 -1,500 Descending FlightAware
06:04AM 2.7080 102.1650 225° Southwest 318 366 11,500 -1,020 Descending FlightAware
06:05AM 2.6770 102.1250 232° Southwest 295 339 11,200 -300 Descending FlightAware
06:06AM 2.6500 102.0860 235° Southwest 273 314 11,200 -120 Level FlightAware
06:06AM 2.6250 102.0670 217° Southwest 263 303 11,100 -480 Descending FlightAware
06:07AM 2.5910 102.0570 196° South 247 284 10,800 -840 Descending FlightAware
06:07AM 2.5540 102.0460 197° South 242 278 10,200 -900 Descending FlightAware
06:08AM 2.5360 102.0400 198° South 240 276 10,000 -420 Descending FlightAware
06:08AM 2.4990 102.0290 197° South 233 268 9,800 -240 Descending FlightAware
06:09AM 2.4780 102.0220 198° South 233 268 9,800  Level FlightAware
06:09AM 2.4570 102.0160 196° South 233 268 9,800 -3,000 Level FlightAware
06:09AM 2.4310 102.0080 197° South 208 239 7,700 -2,520 Descending FlightAware
06:10AM 2.4060 102.0000 198° South 207 238 7,600 -1,080 Descending FlightAware
06:12AM 2.5851 101.8470 320° Northwest  Level Estimated
06:12AM 2.4210 101.9140 320° Northwest 194 223 5,200  Level FlightAware
06:12AM 2.4380 101.9020 325° Northwest 194 223 5,200 -840 Level FlightAware
06:13AM 2.4650 101.8850 328° Northwest 195 224 4,500 -1,140 Descending FlightAware
06:13AM 2.4890 101.8690 326° Northwest 200 230 4,200 -540 Descending FlightAware
06:13AM 2.5090 101.8550 325° Northwest 210 242 4,000 -480 Descending FlightAware
06:14AM 2.5310 101.8410 328° Northwest 212 244 3,800 -540 Descending FlightAware
06:14AM 2.5470 101.8300 326° Northwest 209 241 3,600 -600 Descending FlightAware
06:15AM 2.5630 101.8190 326° Northwest 209 241 3,400 -600 Descending FlightAware
06:15AM 2.5810 101.8070 326° Northwest 203 234 3,200 -1,020 Descending FlightAware
06:15AM 2.5970 101.7960 326° Northwest 200 230 2,700 -1,140 Descending FlightAware
06:16AM 2.6080 101.7890 328° Northwest 185 213 2,500 -840 Descending FlightAware
06:16AM 2.6260 101.7760 324° Northwest 166 191 2,100 -900 Descending FlightAware
06:16AM 2.6390 101.7680 328° Northwest 155 178 1,800 -780 Descending FlightAware
06:17AM 2.6540 101.7580 326° Northwest 144 166 1,500 -360 Descending FlightAware
06:17AM 2.6730 101.7450 326° Northwest 142 163 1,400 -180 Descending FlightAware